createdAt,value
2019-04-28T00:02:08.524Z,63.06
2019-04-28T00:06:11.055Z,62.59
2019-04-28T00:10:13.237Z,62.85
2019-04-28T00:14:14.845Z,62.84
2019-04-28T00:18:16.537Z,62.74
2019-04-28T00:22:18.302Z,63.68
2019-04-28T00:26:21.121Z,63.65
2019-04-28T00:30:23.467Z,63.25
2019-04-28T00:34:25.039Z,63.79
2019-04-28T00:38:26.602Z,63.61
2019-04-28T00:42:28.418Z,63.07
2019-04-28T00:46:31.126Z,62.88
2019-04-28T00:50:32.797Z,63.21
2019-04-28T00:54:34.355Z,63.22
2019-04-28T00:58:35.925Z,63.36
2019-04-28T01:02:37.618Z,63.17
2019-04-28T01:06:39.224Z,63.39
2019-04-28T01:10:41.047Z,63.49
2019-04-28T01:14:43.488Z,63.12
2019-04-28T01:18:45.156Z,63.51
2019-04-28T01:22:46.779Z,63.74
2019-04-28T01:26:50.735Z,63.79
2019-04-28T01:30:52.146Z,63.86
2019-04-28T01:34:53.702Z,63.86
2019-04-28T01:38:55.395Z,63.71
2019-04-28T01:42:56.968Z,64.14
2019-04-28T01:47:00.944Z,64.05
2019-04-28T01:51:02.202Z,63.33
2019-04-28T01:55:04.161Z,63.51
2019-04-28T01:59:05.696Z,64.00
2019-04-28T02:03:07.286Z,63.82
2019-04-28T02:07:10.881Z,63.57
2019-04-28T02:11:12.324Z,63.74
2019-04-28T02:15:13.929Z,64.06
2019-04-28T02:19:15.885Z,63.79
2019-04-28T02:23:17.675Z,63.54
2019-04-28T02:27:20.381Z,63.89
2019-04-28T02:31:24.406Z,63.55
2019-04-28T02:35:31.479Z,63.80
2019-04-28T02:39:32.007Z,63.80
2019-04-28T02:43:33.733Z,63.95
2019-04-28T02:47:35.282Z,64.10
2019-04-28T02:51:36.835Z,64.27
2019-04-28T02:55:41.060Z,64.90
2019-04-28T02:59:44.669Z,63.88
2019-04-28T03:03:45.397Z,64.40
2019-04-28T03:07:47.059Z,63.51
2019-04-28T03:11:51.013Z,63.54
2019-04-28T03:15:52.073Z,63.27
2019-04-28T03:19:53.828Z,63.31
2019-04-28T03:23:55.451Z,62.55
2019-04-28T03:27:57.041Z,63.74
2019-04-28T03:32:20.672Z,63.17
2019-04-28T03:36:07.131Z,63.48
2019-04-28T03:40:05.703Z,63.66
2019-04-28T03:44:07.334Z,63.31
2019-04-28T03:48:11.340Z,63.13
2019-04-28T03:52:12.515Z,63.83
2019-04-28T03:56:14.211Z,63.96
2019-04-28T04:00:15.867Z,63.48
2019-04-28T04:04:18.071Z,63.19
2019-04-28T04:08:20.833Z,63.62
2019-04-28T04:12:23.462Z,63.64
2019-04-28T04:16:25.165Z,63.27
2019-04-28T04:20:26.833Z,63.24
2019-04-28T04:24:30.632Z,64.11
2019-04-28T04:28:31.971Z,63.25
2019-04-28T04:32:34.011Z,64.30
2019-04-28T04:36:35.801Z,63.19
2019-04-28T04:40:37.350Z,63.29
2019-04-28T04:44:41.507Z,62.80
2019-04-28T04:48:42.918Z,63.98
2019-04-28T04:52:44.505Z,63.86
2019-04-28T04:56:46.231Z,63.67
2019-04-28T05:00:47.843Z,62.13
2019-04-28T05:04:50.622Z,62.13
2019-04-28T05:08:52.254Z,62.78
2019-04-28T05:12:53.821Z,62.89
2019-04-28T05:16:55.492Z,62.93
2019-04-28T05:20:57.068Z,62.59
2019-04-28T05:25:00.093Z,63.57
2019-04-28T05:29:01.810Z,64.36
2019-04-28T05:33:03.368Z,64.20
2019-04-28T05:37:05.019Z,64.02
2019-04-28T05:41:06.592Z,63.65
2019-04-28T05:45:10.268Z,62.48
2019-04-28T05:49:11.824Z,62.70
2019-04-28T05:53:13.504Z,62.66
2019-04-28T05:57:15.196Z,63.87
2019-04-28T06:01:16.952Z,64.09
2019-04-28T06:05:20.002Z,63.96
2019-04-28T06:09:22.173Z,64.75
2019-04-28T06:13:23.768Z,64.67
2019-04-28T06:17:25.592Z,64.88
2019-04-28T06:21:27.196Z,64.76
2019-04-28T06:25:28.789Z,65.74
2019-04-28T06:29:30.413Z,66.29
2019-04-28T06:33:32.358Z,66.17
2019-04-28T06:37:33.989Z,66.17
2019-04-28T06:41:35.908Z,65.77
2019-04-28T06:45:37.547Z,66.45
2019-04-28T06:49:39.192Z,66.76
2019-04-28T06:53:41.061Z,65.32
2019-04-28T06:57:42.769Z,65.32
2019-04-28T07:01:44.417Z,64.27
2019-04-28T07:05:46.058Z,64.27
2019-04-28T07:09:47.710Z,64.77
2019-04-28T07:13:49.395Z,64.77
2019-04-28T07:17:51.366Z,64.75
2019-04-28T07:21:53.431Z,63.94
2019-04-28T07:25:55.160Z,62.21
2019-04-28T07:29:56.809Z,62.21
2019-04-28T07:33:58.785Z,61.60
2019-04-28T07:38:00.780Z,60.11
2019-04-28T07:42:03.240Z,60.11
2019-04-28T07:46:04.880Z,61.63
2019-04-28T07:50:06.962Z,59.97
2019-04-28T07:54:08.744Z,59.97
2019-04-28T07:58:10.378Z,58.36
2019-04-28T08:02:12.755Z,58.36
2019-04-28T08:06:14.564Z,58.81
2019-04-28T08:10:16.356Z,58.50
2019-04-28T08:14:19.650Z,58.50
2019-04-28T08:18:21.418Z,59.26
2019-04-28T08:22:23.014Z,57.79
2019-04-28T08:26:24.628Z,57.79
2019-04-28T08:30:27.285Z,55.13
2019-04-28T08:34:29.205Z,56.50
2019-04-28T08:38:30.841Z,56.50
2019-04-28T08:42:32.474Z,54.67
2019-04-28T08:46:34.308Z,53.21
2019-04-28T08:50:35.969Z,53.77
2019-04-28T08:54:37.621Z,54.93
2019-04-28T08:58:39.281Z,50.67
2019-04-28T09:02:41.292Z,50.67
2019-04-28T09:06:42.891Z,52.89
2019-04-28T09:10:45.164Z,48.82
2019-04-28T09:14:47.004Z,46.66
2019-04-28T09:18:48.882Z,50.04
2019-04-28T09:22:50.497Z,47.23
2019-04-28T09:26:52.261Z,48.33
2019-04-28T09:30:53.960Z,46.93
2019-04-28T09:34:55.662Z,47.18
2019-04-28T09:38:57.347Z,49.08
2019-04-28T09:42:59.955Z,49.22
2019-04-28T09:47:01.542Z,49.56
2019-04-28T09:51:03.174Z,49.69
2019-04-28T09:55:04.818Z,49.48
2019-04-28T09:59:07.417Z,49.16
2019-04-28T10:03:09.812Z,49.19
2019-04-28T10:07:11.993Z,50.55
2019-04-28T10:11:13.651Z,50.57
2019-04-28T10:15:15.502Z,48.80
2019-04-28T10:19:18.112Z,49.74
2019-04-28T10:23:20.748Z,49.80
2019-04-28T10:27:22.403Z,51.46
2019-04-28T10:31:25.398Z,53.48
2019-04-28T10:35:28.010Z,52.86
2019-04-28T10:39:30.352Z,52.52
2019-04-28T10:43:32.576Z,50.16
2019-04-28T10:47:34.705Z,48.79
2019-04-28T10:51:37.276Z,48.83
2019-04-28T10:55:40.077Z,49.70
2019-04-28T10:59:42.447Z,48.30
2019-04-28T11:03:44.787Z,46.36
2019-04-28T11:07:46.392Z,47.53
2019-04-28T11:11:48.201Z,46.90
2019-04-28T11:15:50.608Z,46.55
2019-04-28T11:19:52.373Z,46.96
2019-04-28T11:23:55.107Z,48.12
2019-04-28T11:27:58.633Z,50.48
2019-04-28T11:32:01.112Z,49.41
2019-04-28T11:36:02.919Z,48.24
2019-04-28T11:40:06.386Z,47.99
2019-04-28T11:44:10.697Z,47.73
2019-04-28T11:48:12.529Z,47.59
2019-04-28T11:52:14.535Z,47.85
2019-04-28T11:56:16.398Z,46.40
2019-04-28T12:00:18.562Z,46.27
2019-04-28T12:04:20.375Z,47.09
2019-04-28T12:08:24.188Z,44.68
2019-04-28T12:12:26.526Z,46.83
2019-04-28T12:16:28.612Z,47.43
2019-04-28T12:20:31.779Z,43.29
2019-04-28T12:24:34.173Z,43.00
2019-04-28T12:28:35.838Z,41.77
2019-04-28T12:32:37.939Z,42.60
2019-04-28T12:36:39.596Z,42.50
2019-04-28T12:40:41.194Z,42.90
2019-04-28T12:44:43.358Z,43.44
2019-04-28T12:48:44.963Z,43.82
2019-04-28T12:52:46.749Z,43.00
2019-04-28T12:56:48.531Z,45.60
2019-04-28T13:00:50.350Z,46.62
2019-04-28T13:04:52.438Z,47.48
2019-04-28T13:08:54.455Z,48.35
2019-04-28T13:12:56.740Z,50.43
2019-04-28T13:16:58.498Z,50.69
2019-04-28T13:21:00.478Z,50.61
2019-04-28T13:25:02.500Z,52.03
2019-04-28T13:32:03.955Z,50.68
2019-04-28T13:36:14.477Z,50.69
2019-04-28T13:40:11.662Z,49.77
2019-04-28T13:44:14.014Z,48.77
2019-04-28T13:48:15.813Z,48.36
2019-04-28T13:52:18.147Z,48.37
2019-04-28T13:56:20.656Z,49.44
2019-04-28T14:00:22.795Z,50.36
2019-04-28T14:04:24.668Z,48.46
2019-04-28T14:08:27.355Z,49.70
2019-04-28T14:12:29.123Z,48.35
2019-04-28T14:16:32.748Z,47.75
2019-04-28T14:20:35.239Z,46.10
2019-04-28T14:24:37.532Z,46.83
2019-04-28T14:28:39.318Z,48.23
2019-04-28T14:32:41.031Z,48.50
2019-04-28T14:36:43.001Z,47.47
2019-04-28T14:40:44.664Z,49.01
2019-04-28T14:44:46.405Z,47.75
2019-04-28T14:48:49.465Z,46.81
2019-04-28T14:52:51.365Z,46.35
2019-04-28T14:56:53.650Z,46.58
2019-04-28T15:00:55.572Z,47.03
2019-04-28T15:04:57.792Z,47.06
2019-04-28T15:09:00.553Z,47.64
2019-04-28T15:13:02.616Z,45.12
2019-04-28T15:17:04.432Z,44.07
2019-04-28T15:21:06.149Z,40.79
2019-04-28T15:25:08.433Z,43.25
2019-04-28T15:29:10.082Z,42.14
2019-04-28T15:33:11.927Z,43.21
2019-04-28T15:37:15.508Z,44.21
2019-04-28T15:41:21.847Z,44.97
2019-04-28T15:45:21.090Z,44.75
2019-04-28T15:49:23.008Z,44.00
2019-04-28T15:53:24.744Z,45.87
2019-04-28T15:57:26.935Z,47.24
2019-04-28T16:01:29.642Z,47.25
2019-04-28T16:05:31.366Z,47.18
2019-04-28T16:09:33.720Z,44.65
2019-04-28T16:13:35.970Z,46.21
2019-04-28T16:17:37.706Z,43.98
2019-04-28T16:21:40.380Z,46.58
2019-04-28T16:25:42.818Z,45.75
2019-04-28T16:29:44.715Z,46.27
2019-04-28T16:33:46.632Z,44.74
2019-04-28T16:37:49.331Z,45.93
2019-04-28T16:41:51.083Z,43.52
2019-04-28T16:45:52.834Z,44.18
2019-04-28T16:49:54.610Z,43.62
2019-04-28T16:53:56.667Z,42.85
2019-04-28T16:57:59.631Z,43.85
2019-04-28T17:02:01.620Z,43.44
2019-04-28T17:06:03.738Z,41.07
2019-04-28T17:10:06.505Z,37.88
2019-04-28T17:14:08.297Z,38.05
2019-04-28T17:18:10.534Z,39.39
2019-04-28T17:22:12.904Z,38.46
2019-04-28T17:26:14.720Z,37.59
2019-04-28T17:30:16.643Z,36.38
2019-04-28T17:34:19.947Z,35.31
2019-04-28T17:38:21.632Z,33.32
2019-04-28T17:42:23.529Z,33.19
2019-04-28T17:46:25.295Z,31.98
2019-04-28T17:50:27.071Z,34.91
2019-04-28T17:54:28.894Z,37.57
2019-04-28T17:58:30.958Z,40.91
2019-04-28T18:02:32.659Z,43.51
2019-04-28T18:06:34.680Z,45.01
2019-04-28T18:10:37.993Z,46.92
2019-04-28T18:14:40.807Z,48.19
2019-04-28T18:18:42.977Z,49.56
2019-04-28T18:22:45.092Z,50.10
2019-04-28T18:26:47.537Z,50.94
2019-04-28T18:30:49.659Z,51.70
2019-04-28T18:34:52.574Z,53.47
2019-04-28T18:38:54.303Z,53.47
2019-04-28T18:42:58.110Z,54.36
2019-04-28T18:47:01.644Z,54.82
2019-04-28T18:51:04.222Z,55.41
2019-04-28T18:55:08.124Z,55.92
2019-04-28T18:59:10.727Z,56.29
2019-04-28T19:03:12.801Z,56.10
2019-04-28T19:07:15.316Z,56.45
2019-04-28T19:11:18.325Z,56.59
2019-04-28T19:15:22.783Z,57.48
2019-04-28T19:19:25.408Z,58.00
2019-04-28T19:23:27.927Z,57.61
2019-04-28T19:27:32.765Z,57.84
2019-04-28T19:31:35.216Z,58.10
2019-04-28T19:35:39.170Z,58.04
2019-04-28T19:39:42.041Z,58.73
2019-04-28T19:43:44.489Z,58.93
2019-04-28T19:47:46.718Z,59.00
2019-04-28T19:51:48.635Z,58.93
2019-04-28T19:55:50.616Z,59.00
2019-04-28T19:59:53.124Z,58.86
2019-04-28T20:03:56.821Z,59.40
2019-04-28T20:07:59.435Z,59.40
2019-04-28T20:12:01.910Z,60.58
2019-04-28T20:16:04.756Z,60.97
2019-04-28T20:20:07.064Z,59.72
2019-04-28T20:24:09.358Z,59.92
2019-04-28T20:28:11.642Z,61.40
2019-04-28T20:32:14.005Z,61.53
2019-04-28T20:36:16.476Z,61.99
2019-04-28T20:40:19.461Z,61.51
2019-04-28T20:44:22.382Z,61.59
2019-04-28T20:48:25.516Z,62.30
2019-04-28T20:52:28.087Z,62.39
2019-04-28T20:56:32.106Z,62.11
2019-04-28T21:00:34.343Z,62.11
2019-04-28T21:04:37.118Z,62.00
2019-04-28T21:08:39.445Z,62.72
2019-04-28T21:12:41.465Z,62.42
2019-04-28T21:16:43.623Z,62.96
2019-04-28T21:20:46.343Z,63.75
2019-04-28T21:24:48.982Z,63.83
2019-04-28T21:28:51.832Z,63.41
2019-04-28T21:32:54.281Z,63.38
2019-04-28T21:36:57.060Z,62.98
2019-04-28T21:40:59.037Z,63.48
2019-04-28T21:45:01.013Z,63.87
2019-04-28T21:49:04.298Z,64.04
2019-04-28T21:53:06.574Z,64.09
2019-04-28T21:57:09.252Z,63.38
2019-04-28T22:01:15.472Z,63.89
2019-04-28T22:05:29.900Z,65.43
2019-04-28T22:09:23.039Z,65.39
2019-04-28T22:13:25.372Z,65.76
2019-04-28T22:17:28.341Z,66.14
2019-04-28T22:21:30.287Z,66.50
2019-04-28T22:25:32.485Z,66.58
2019-04-28T22:29:35.020Z,66.32
2019-04-28T22:33:36.879Z,66.70
2019-04-28T22:37:40.152Z,66.99
2019-04-28T22:41:42.341Z,66.67
2019-04-28T22:45:44.469Z,67.14
2019-04-28T22:49:46.272Z,67.10
2019-04-28T22:53:49.016Z,66.61
2019-04-28T22:57:50.797Z,67.29
2019-04-28T23:01:52.790Z,67.90
2019-04-28T23:05:55.658Z,67.72
2019-04-28T23:09:58.282Z,67.70
2019-04-28T23:14:01.617Z,67.76
2019-04-28T23:18:04.378Z,67.90
2019-04-28T23:22:06.230Z,67.99
2019-04-28T23:26:08.151Z,68.04
2019-04-28T23:30:09.915Z,68.19
2019-04-28T23:34:11.597Z,68.05
2019-04-28T23:38:13.587Z,68.01
2019-04-28T23:42:15.343Z,68.51
2019-04-28T23:46:17.020Z,68.71
2019-04-28T23:50:18.787Z,68.74
2019-04-28T23:54:21.035Z,68.63
2019-04-28T23:58:22.705Z,68.83
